createdAt,value
2022-11-28T00:03:33.822Z,31.15
2022-11-28T00:06:21.445Z,32.72
2022-11-28T00:09:09.135Z,30.50
2022-11-28T00:11:56.166Z,32.30
2022-11-28T00:14:43.307Z,28.80
2022-11-28T00:17:30.596Z,31.00
2022-11-28T00:20:17.688Z,29.45
2022-11-28T00:23:04.722Z,30.58
2022-11-28T00:26:03.759Z,32.95
2022-11-28T00:28:51.792Z,29.40
2022-11-28T00:31:42.926Z,32.15
2022-11-28T00:34:30.320Z,33.88
2022-11-28T00:37:17.388Z,30.48
2022-11-28T00:40:04.759Z,27.58
2022-11-28T00:42:51.781Z,27.02
2022-11-28T00:45:38.921Z,27.13
2022-11-28T00:48:26.932Z,27.67
2022-11-28T00:51:17.894Z,27.55
2022-11-28T00:54:06.280Z,26.88
2022-11-28T00:56:53.339Z,30.20
2022-11-28T00:59:40.526Z,27.80
2022-11-28T01:02:28.143Z,24.92
2022-11-28T01:05:15.306Z,24.58
2022-11-28T01:08:02.315Z,24.27
2022-11-28T01:10:49.405Z,23.33
2022-11-28T01:13:36.397Z,24.05
2022-11-28T01:16:23.714Z,24.10
2022-11-28T01:19:11.199Z,27.80
2022-11-28T01:21:58.296Z,25.67
2022-11-28T01:24:45.309Z,25.50
2022-11-28T01:27:32.444Z,22.25
2022-11-28T01:30:19.647Z,23.35
2022-11-28T01:33:06.759Z,24.13
2022-11-28T01:35:58.770Z,25.83
2022-11-28T01:38:46.821Z,24.10
2022-11-28T01:41:34.179Z,23.73
2022-11-28T01:44:21.151Z,25.75
2022-11-28T01:47:08.275Z,26.45
2022-11-28T01:49:55.999Z,25.02
2022-11-28T01:52:48.160Z,25.85
2022-11-28T01:55:40.227Z,20.58
2022-11-28T01:58:28.624Z,22.45
2022-11-28T02:01:17.259Z,22.83
2022-11-28T02:04:04.901Z,20.90
2022-11-28T02:06:51.919Z,24.83
2022-11-28T02:09:38.904Z,20.70
2022-11-28T02:13:07.097Z,24.30
2022-11-28T02:16:09.885Z,18.33
2022-11-28T02:19:27.569Z,22.63
2022-11-28T02:22:27.320Z,18.95
2022-11-28T02:25:52.722Z,18.85
2022-11-28T02:29:11.860Z,22.27
2022-11-28T02:32:17.277Z,20.10
2022-11-28T02:35:20.638Z,18.60
2022-11-28T02:38:39.560Z,19.90
2022-11-28T02:41:35.121Z,20.67
2022-11-28T02:44:49.010Z,22.67
2022-11-28T02:47:41.139Z,20.58
2022-11-28T02:50:44.029Z,24.00
2022-11-28T02:53:33.840Z,22.17
2022-11-28T02:56:22.880Z,21.75
2022-11-28T02:59:31.513Z,22.80
2022-11-28T03:02:18.617Z,20.42
2022-11-28T03:05:38.077Z,23.83
2022-11-28T03:08:52.294Z,21.45
2022-11-28T03:12:01.170Z,19.30
2022-11-28T03:14:56.811Z,23.50
2022-11-28T03:18:24.868Z,18.60
2022-11-28T03:21:22.330Z,18.85
2022-11-28T03:24:20.158Z,20.30
2022-11-28T03:27:24.221Z,21.20
2022-11-28T03:30:22.199Z,25.98
2022-11-28T03:33:09.887Z,25.75
2022-11-28T03:36:04.379Z,20.40
2022-11-28T03:39:00.993Z,19.55
2022-11-28T03:42:22.300Z,25.00
2022-11-28T03:45:14.346Z,23.13
2022-11-28T03:48:06.719Z,21.95
2022-11-28T03:51:02.909Z,21.75
2022-11-28T03:54:10.979Z,20.25
2022-11-28T03:57:19.129Z,24.15
2022-11-28T04:00:09.140Z,25.35
2022-11-28T04:03:26.454Z,23.60
2022-11-28T04:06:39.980Z,23.25
2022-11-28T04:09:39.728Z,24.13
2022-11-28T04:12:35.720Z,23.52
2022-11-28T04:15:52.870Z,21.50
2022-11-28T04:18:52.091Z,23.08
2022-11-28T04:21:57.579Z,24.97
2022-11-28T04:24:54.018Z,24.58
2022-11-28T04:28:03.451Z,24.48
2022-11-28T04:30:52.565Z,24.73
2022-11-28T04:33:44.299Z,24.80
2022-11-28T04:36:35.608Z,21.60
2022-11-28T04:39:25.818Z,25.13
2022-11-28T04:45:14.194Z,20.90
2022-11-28T04:48:01.962Z,26.02
2022-11-28T04:51:12.369Z,22.00
2022-11-28T04:54:11.217Z,26.58
2022-11-28T04:57:07.771Z,24.60
2022-11-28T04:59:56.243Z,26.13
2022-11-28T05:02:45.352Z,22.80
2022-11-28T05:05:41.131Z,24.73
2022-11-28T05:08:28.237Z,23.70
2022-11-28T05:11:15.265Z,22.27
2022-11-28T05:14:02.560Z,25.75
2022-11-28T05:16:50.339Z,24.25
2022-11-28T05:19:37.409Z,26.15
2022-11-28T05:22:24.445Z,22.27
2022-11-28T05:25:11.729Z,23.65
2022-11-28T05:27:58.790Z,26.60
2022-11-28T05:30:45.991Z,25.88
2022-11-28T05:33:33.598Z,23.42
2022-11-28T05:36:21.186Z,22.60
2022-11-28T05:39:08.265Z,22.08
2022-11-28T05:41:56.266Z,30.45
2022-11-28T05:44:43.501Z,23.08
2022-11-28T05:47:32.269Z,29.77
2022-11-28T05:50:19.331Z,21.23
2022-11-28T05:53:06.407Z,22.30
2022-11-28T05:55:53.407Z,23.23
2022-11-28T05:58:41.135Z,21.77
2022-11-28T06:01:30.005Z,22.35
2022-11-28T06:04:17.188Z,26.10
2022-11-28T06:07:04.217Z,26.27
2022-11-28T06:09:51.462Z,22.45
2022-11-28T06:12:38.511Z,28.40
2022-11-28T06:15:25.630Z,23.52
2022-11-28T06:18:12.598Z,22.63
2022-11-28T06:21:02.952Z,27.15
2022-11-28T06:23:50.297Z,23.38
2022-11-28T06:26:37.409Z,24.77
2022-11-28T06:29:24.400Z,24.10
2022-11-28T06:32:11.565Z,25.95
2022-11-28T06:34:58.623Z,21.95
2022-11-28T06:37:45.670Z,25.50
2022-11-28T06:40:32.861Z,23.63
2022-11-28T06:43:19.924Z,24.33
2022-11-28T06:46:28.928Z,23.17
2022-11-28T06:49:15.975Z,23.70
2022-11-28T06:52:03.408Z,25.10
2022-11-28T06:54:50.424Z,23.70
2022-11-28T06:57:38.239Z,25.10
2022-11-28T07:00:25.543Z,27.23
2022-11-28T07:03:13.365Z,23.10
2022-11-28T07:06:04.956Z,24.70
2022-11-28T07:08:52.286Z,26.48
2022-11-28T07:11:44.754Z,24.80
2022-11-28T07:14:33.969Z,23.10
2022-11-28T07:17:21.049Z,23.53
2022-11-28T07:20:08.742Z,27.80
2022-11-28T07:22:55.884Z,26.60
2022-11-28T07:25:42.975Z,25.77
2022-11-28T07:28:31.408Z,25.27
2022-11-28T07:31:21.044Z,25.35
2022-11-28T07:34:09.387Z,19.35
2022-11-28T07:36:56.491Z,26.27
2022-11-28T07:39:44.820Z,26.00
2022-11-28T07:42:32.119Z,26.05
2022-11-28T07:45:20.186Z,25.33
2022-11-28T07:48:07.278Z,28.13
2022-11-28T07:50:54.291Z,26.10
2022-11-28T07:53:42.548Z,25.05
2022-11-28T07:57:04.077Z,29.17
2022-11-28T07:59:39.863Z,28.88
2022-11-28T08:02:28.089Z,25.48
2022-11-28T08:05:15.306Z,25.70
2022-11-28T08:08:02.505Z,25.48
2022-11-28T08:10:49.703Z,26.50
2022-11-28T08:13:38.146Z,25.40
2022-11-28T08:16:26.900Z,29.85
2022-11-28T08:19:14.035Z,28.10
2022-11-28T08:22:01.116Z,29.63
2022-11-28T08:24:48.121Z,26.92
2022-11-28T08:27:35.276Z,25.67
2022-11-28T08:30:24.522Z,26.15
2022-11-28T08:33:11.738Z,26.17
2022-11-28T08:35:58.958Z,25.80
2022-11-28T08:39:03.291Z,26.75
2022-11-28T08:41:59.741Z,28.33
2022-11-28T08:44:46.854Z,26.83
2022-11-28T08:47:33.913Z,23.42
2022-11-28T08:50:22.221Z,25.65
2022-11-28T08:53:09.238Z,23.70
2022-11-28T08:55:56.435Z,25.92
2022-11-28T09:01:16.131Z,24.77
2022-11-28T09:04:04.489Z,24.95
2022-11-28T09:06:51.934Z,25.80
2022-11-28T09:09:38.935Z,20.65
2022-11-28T09:12:25.947Z,22.50
2022-11-28T09:15:13.519Z,26.58
2022-11-28T09:18:00.793Z,25.30
2022-11-28T09:20:47.812Z,23.55
2022-11-28T09:23:36.016Z,22.23
2022-11-28T09:26:24.888Z,23.15
2022-11-28T09:29:11.951Z,20.33
2022-11-28T09:32:00.040Z,19.35
2022-11-28T09:34:47.123Z,19.00
2022-11-28T09:37:34.177Z,19.98
2022-11-28T09:40:33.280Z,23.88
2022-11-28T09:43:44.040Z,18.50
2022-11-28T09:46:35.348Z,23.52
2022-11-28T09:49:36.799Z,22.42
2022-11-28T09:52:47.450Z,19.50
2022-11-28T09:55:50.179Z,18.27
2022-11-28T09:58:48.614Z,19.23
2022-11-28T10:01:44.525Z,15.27
2022-11-28T10:04:42.397Z,17.20
2022-11-28T10:07:44.304Z,16.60
2022-11-28T10:10:50.514Z,13.88
2022-11-28T10:14:08.093Z,13.65
2022-11-28T10:17:30.208Z,14.00
2022-11-28T10:20:23.372Z,14.23
2022-11-28T10:23:23.888Z,14.13
2022-11-28T10:26:36.192Z,12.43
2022-11-28T10:29:33.531Z,14.13
2022-11-28T10:32:29.379Z,12.88
2022-11-28T10:35:28.925Z,11.93
2022-11-28T10:38:17.154Z,13.20
2022-11-28T10:41:19.207Z,14.93
2022-11-28T10:44:29.728Z,14.32
2022-11-28T10:47:45.454Z,13.50
2022-11-28T10:50:45.550Z,13.13
2022-11-28T10:53:49.223Z,12.95
2022-11-28T10:56:44.945Z,16.13
2022-11-28T10:59:48.938Z,13.77
2022-11-28T11:02:50.959Z,12.65
2022-11-28T11:05:39.495Z,12.45
2022-11-28T11:08:34.807Z,12.30
2022-11-28T11:11:32.319Z,13.05
2022-11-28T11:14:34.550Z,14.20
2022-11-28T11:17:37.811Z,11.93
2022-11-28T11:20:38.831Z,15.60
2022-11-28T11:23:26.092Z,13.63
2022-11-28T11:26:41.277Z,17.90
2022-11-28T11:29:28.271Z,12.43
2022-11-28T11:32:26.536Z,13.63
2022-11-28T11:35:19.454Z,13.18
2022-11-28T11:38:32.347Z,18.13
2022-11-28T11:41:31.587Z,13.88
2022-11-28T11:44:36.686Z,12.65
2022-11-28T11:47:44.200Z,12.80
2022-11-28T11:50:32.107Z,15.07
2022-11-28T11:53:19.304Z,13.13
2022-11-28T11:56:06.658Z,12.50
2022-11-28T11:58:56.123Z,12.52
2022-11-28T12:01:47.799Z,15.23
2022-11-28T12:04:47.073Z,12.43
2022-11-28T12:07:55.343Z,10.02
2022-11-28T12:10:52.531Z,9.40
2022-11-28T12:13:39.883Z,10.00
2022-11-28T12:17:47.346Z,10.10
2022-11-28T12:21:06.530Z,7.72
2022-11-28T12:24:10.076Z,9.02
2022-11-28T12:27:07.630Z,11.55
2022-11-28T12:30:19.635Z,9.77
2022-11-28T12:33:32.393Z,10.90
2022-11-28T12:36:22.431Z,10.63
2022-11-28T12:39:21.533Z,10.40
2022-11-28T12:42:23.632Z,11.38
2022-11-28T12:45:40.711Z,10.13
2022-11-28T12:48:33.630Z,11.85
2022-11-28T12:51:38.869Z,9.15
2022-11-28T12:54:25.829Z,10.50
2022-11-28T12:57:39.018Z,10.77
2022-11-28T13:00:27.821Z,10.48
2022-11-28T13:03:36.049Z,11.77
2022-11-28T13:06:23.061Z,9.85
2022-11-28T13:09:19.031Z,10.95
2022-11-28T13:12:26.999Z,12.63
2022-11-28T13:15:39.202Z,9.13
2022-11-28T13:18:38.388Z,8.52
2022-11-28T13:21:40.511Z,10.90
2022-11-28T13:24:40.269Z,10.45
2022-11-28T13:27:44.741Z,8.80
2022-11-28T13:30:42.319Z,8.63
2022-11-28T13:33:50.653Z,10.80
2022-11-28T13:40:17.839Z,10.25
2022-11-28T13:43:14.195Z,9.93
2022-11-28T13:49:27.604Z,8.90
2022-11-28T13:52:17.548Z,8.70
2022-11-28T13:55:04.985Z,13.02
2022-11-28T13:57:52.124Z,13.18
2022-11-28T14:00:39.925Z,11.13
2022-11-28T14:03:27.148Z,10.63
2022-11-28T14:06:19.028Z,10.40
2022-11-28T14:09:09.304Z,9.75
2022-11-28T14:11:59.835Z,10.27
2022-11-28T14:15:18.750Z,9.70
2022-11-28T14:18:55.739Z,9.80
2022-11-28T14:21:40.754Z,9.88
2022-11-28T14:25:02.491Z,11.02
2022-11-28T14:27:58.614Z,12.38
2022-11-28T14:30:46.940Z,9.90
2022-11-28T14:33:40.792Z,9.30
2022-11-28T14:36:34.325Z,11.27
2022-11-28T14:39:34.819Z,8.30
2022-11-28T14:42:58.367Z,11.13
2022-11-28T14:45:45.425Z,7.95
2022-11-28T14:48:32.595Z,11.63
2022-11-28T14:51:20.428Z,10.07
2022-11-28T14:54:35.677Z,8.93
2022-11-28T14:57:26.086Z,8.05
2022-11-28T15:00:23.069Z,11.63
2022-11-28T15:03:42.058Z,9.38
2022-11-28T15:06:35.483Z,7.22
2022-11-28T15:09:45.952Z,9.02
2022-11-28T15:13:00.779Z,11.38
2022-11-28T15:15:52.925Z,9.30
2022-11-28T15:18:48.435Z,10.10
2022-11-28T15:21:47.581Z,10.50
2022-11-28T15:24:37.519Z,11.60
2022-11-28T15:27:27.617Z,12.30
2022-11-28T15:33:03.863Z,9.48
2022-11-28T15:35:57.085Z,12.48
2022-11-28T15:38:44.250Z,10.80
2022-11-28T15:41:31.518Z,11.80
2022-11-28T15:44:18.790Z,10.38
2022-11-28T15:47:19.821Z,14.93
2022-11-28T15:50:09.838Z,12.88
2022-11-28T15:52:58.540Z,14.90
2022-11-28T15:55:46.432Z,13.73
2022-11-28T15:58:33.523Z,15.60
2022-11-28T16:01:23.733Z,17.98
2022-11-28T16:04:15.347Z,13.50
2022-11-28T16:07:04.708Z,12.88
2022-11-28T16:10:02.024Z,14.35
2022-11-28T16:12:50.299Z,12.50
2022-11-28T16:15:38.648Z,13.02
2022-11-28T16:18:29.642Z,13.13
2022-11-28T16:21:17.691Z,13.02
2022-11-28T16:24:18.208Z,15.75
2022-11-28T16:27:06.766Z,14.45
2022-11-28T16:29:54.683Z,13.73
2022-11-28T16:32:41.969Z,18.55
2022-11-28T16:35:40.575Z,14.30
2022-11-28T16:38:28.238Z,13.95
2022-11-28T16:41:25.570Z,15.68
2022-11-28T16:44:15.740Z,15.20
2022-11-28T16:47:03.138Z,20.30
2022-11-28T16:50:23.856Z,16.15
2022-11-28T16:54:00.082Z,17.52
2022-11-28T16:56:48.472Z,17.83
2022-11-28T16:59:36.105Z,21.23
2022-11-28T17:02:26.436Z,15.75
2022-11-28T17:05:14.005Z,16.15
2022-11-28T17:08:01.933Z,15.70
2022-11-28T17:11:03.083Z,17.20
2022-11-28T17:13:51.843Z,15.68
2022-11-28T17:16:40.598Z,16.45
2022-11-28T17:19:31.347Z,15.23
2022-11-28T17:22:25.540Z,17.15
2022-11-28T17:25:18.574Z,18.58
2022-11-28T17:28:06.214Z,18.67
2022-11-28T17:30:54.442Z,19.70
2022-11-28T17:33:44.865Z,20.73
2022-11-28T17:36:32.560Z,21.33
2022-11-28T17:39:21.317Z,16.50
2022-11-28T17:42:11.767Z,15.93
2022-11-28T17:44:59.421Z,16.05
2022-11-28T17:47:47.985Z,14.57
2022-11-28T17:50:35.919Z,15.93
2022-11-28T17:53:24.393Z,19.20
2022-11-28T17:56:15.603Z,15.85
2022-11-28T17:59:03.578Z,14.05
2022-11-28T18:01:51.755Z,13.15
2022-11-28T18:04:39.718Z,17.15
2022-11-28T18:07:27.303Z,17.50
2022-11-28T18:10:14.638Z,20.00
2022-11-28T18:13:02.296Z,19.90
2022-11-28T18:15:54.395Z,23.13
2022-11-28T18:18:42.181Z,24.85
2022-11-28T18:21:29.493Z,23.85
2022-11-28T18:24:17.927Z,24.90
2022-11-28T18:27:05.693Z,23.20
2022-11-28T18:29:53.423Z,24.42
2022-11-28T18:32:41.522Z,21.30
2022-11-28T18:35:29.142Z,18.75
2022-11-28T18:38:17.049Z,22.85
2022-11-28T18:41:07.125Z,20.95
2022-11-28T18:44:00.762Z,19.67
2022-11-28T18:46:49.222Z,16.70
2022-11-28T18:49:37.303Z,15.15
2022-11-28T18:52:25.185Z,16.33
2022-11-28T18:55:16.508Z,15.88
2022-11-28T18:58:04.480Z,16.05
2022-11-28T19:00:52.801Z,17.98
2022-11-28T19:03:41.946Z,16.45
2022-11-28T19:06:30.627Z,15.50
2022-11-28T19:09:20.680Z,16.08
2022-11-28T19:12:08.835Z,20.08
2022-11-28T19:15:01.843Z,16.65
2022-11-28T19:17:51.244Z,17.75
2022-11-28T19:20:43.828Z,14.88
2022-11-28T19:23:34.640Z,15.18
2022-11-28T19:26:24.827Z,14.57
2022-11-28T19:32:01.885Z,15.52
2022-11-28T19:34:52.891Z,17.27
2022-11-28T19:37:42.649Z,17.38
2022-11-28T19:40:30.835Z,19.13
2022-11-28T19:43:18.610Z,16.10
2022-11-28T19:46:07.550Z,15.70
2022-11-28T19:48:57.492Z,21.17
2022-11-28T19:51:45.934Z,19.15
2022-11-28T19:54:35.319Z,23.05
2022-11-28T19:57:24.257Z,23.13
2022-11-28T20:00:14.113Z,20.35
2022-11-28T20:03:01.611Z,19.52
2022-11-28T20:05:51.198Z,24.10
2022-11-28T20:08:40.050Z,19.83
2022-11-28T20:11:31.412Z,20.95
2022-11-28T20:14:24.032Z,23.15
2022-11-28T20:17:11.993Z,19.25
2022-11-28T20:20:00.482Z,27.00
2022-11-28T20:22:57.702Z,21.58
2022-11-28T20:25:45.758Z,22.38
2022-11-28T20:28:35.609Z,19.67
2022-11-28T20:31:31.644Z,23.10
2022-11-28T20:34:22.314Z,23.95
2022-11-28T20:37:10.037Z,25.42
2022-11-28T20:39:57.599Z,22.55
2022-11-28T20:42:45.786Z,21.17
2022-11-28T20:45:34.042Z,21.60
2022-11-28T20:48:23.332Z,22.77
2022-11-28T20:51:20.430Z,26.20
2022-11-28T20:54:11.518Z,24.60
2022-11-28T20:57:20.318Z,24.98
2022-11-28T21:00:08.242Z,26.17
2022-11-28T21:02:57.166Z,23.33
2022-11-28T21:05:44.691Z,23.70
2022-11-28T21:08:34.245Z,25.90
2022-11-28T21:11:55.643Z,25.58
2022-11-28T21:17:18.934Z,19.77
2022-11-28T21:20:08.663Z,21.38
2022-11-28T21:22:56.479Z,26.85
2022-11-28T21:25:44.802Z,29.65
2022-11-28T21:28:32.213Z,28.30
2022-11-28T21:31:22.503Z,33.05
2022-11-28T21:36:58.001Z,29.58
2022-11-28T21:39:45.332Z,30.08
2022-11-28T21:42:32.598Z,29.63
2022-11-28T21:45:20.040Z,28.08
2022-11-28T21:48:07.036Z,26.80
2022-11-28T21:50:54.084Z,26.45
2022-11-28T21:53:41.101Z,24.95
2022-11-28T21:56:28.377Z,31.00
2022-11-28T21:59:15.485Z,30.25
2022-11-28T22:02:05.991Z,32.28
2022-11-28T22:04:55.588Z,45.25
2022-11-28T22:07:42.676Z,42.08
2022-11-28T22:10:29.833Z,34.08
2022-11-28T22:13:16.882Z,40.67
2022-11-28T22:16:16.939Z,41.45
2022-11-28T22:19:04.253Z,41.70
2022-11-28T22:21:52.504Z,38.95
2022-11-28T22:24:41.491Z,38.00
2022-11-28T22:27:32.727Z,38.95
2022-11-28T22:30:19.881Z,39.30
2022-11-28T22:33:06.955Z,37.95
2022-11-28T22:35:54.048Z,35.33
2022-11-28T22:38:43.019Z,36.10
2022-11-28T22:41:30.091Z,37.47
2022-11-28T22:44:17.372Z,38.25
2022-11-28T22:47:04.681Z,41.03
2022-11-28T22:49:51.783Z,36.08
2022-11-28T22:52:38.791Z,37.88
2022-11-28T22:55:25.825Z,36.75
2022-11-28T22:58:12.912Z,35.95
2022-11-28T23:00:59.919Z,31.70
2022-11-28T23:03:47.076Z,35.83
2022-11-28T23:06:35.126Z,36.80
2022-11-28T23:09:22.227Z,42.95
2022-11-28T23:12:09.244Z,39.45
2022-11-28T23:14:56.232Z,40.42
2022-11-28T23:17:43.301Z,41.13
2022-11-28T23:20:30.299Z,40.95
2022-11-28T23:23:17.334Z,40.30
2022-11-28T23:26:10.041Z,39.80
2022-11-28T23:29:00.278Z,40.17
2022-11-28T23:34:34.698Z,45.35
2022-11-28T23:37:21.662Z,45.83
2022-11-28T23:40:09.284Z,52.38
2022-11-28T23:42:56.236Z,45.15
2022-11-28T23:45:43.322Z,46.05
2022-11-28T23:48:30.440Z,40.88
2022-11-28T23:51:21.539Z,41.58
2022-11-28T23:54:10.964Z,42.15
2022-11-28T23:56:57.981Z,42.25
2022-11-28T23:59:44.952Z,40.38
